sensor_id;sensor_type;location;lat;lon;timestamp;pressure;altitude;pressure_sealevel;temperature;humidity
33949;BME280;20229;49.856;19.030;2023-02-04T00:01:31;100918.79;;;3.61;99.13
33949;BME280;20229;49.856;19.030;2023-02-04T00:06:53;100917.98;;;3.57;99.15
33949;BME280;20229;49.856;19.030;2023-02-04T00:11:56;100915.22;;;3.58;98.67
33949;BME280;20229;49.856;19.030;2023-02-04T00:17:19;100913.55;;;3.53;98.60
33949;BME280;20229;49.856;19.030;2023-02-04T00:22:22;100908.20;;;3.51;98.66
33949;BME280;20229;49.856;19.030;2023-02-04T00:27:44;100916.42;;;3.47;98.74
33949;BME280;20229;49.856;19.030;2023-02-04T00:32:49;100914.55;;;3.49;98.62
33949;BME280;20229;49.856;19.030;2023-02-04T00:38:10;100919.13;;;3.47;98.65
33949;BME280;20229;49.856;19.030;2023-02-04T00:43:14;100910.95;;;3.50;98.97
33949;BME280;20229;49.856;19.030;2023-02-04T00:48:36;100918.13;;;3.49;98.84
33949;BME280;20229;49.856;19.030;2023-02-04T00:53:39;100907.25;;;3.54;98.87
33949;BME280;20229;49.856;19.030;2023-02-04T00:59:02;100915.37;;;3.52;98.87
33949;BME280;20229;49.856;19.030;2023-02-04T01:04:05;100902.66;;;3.57;98.75
33949;BME280;20229;49.856;19.030;2023-02-04T01:09:28;100901.85;;;3.54;98.92
33949;BME280;20229;49.856;19.030;2023-02-04T01:14:31;100890.92;;;3.58;98.74
33949;BME280;20229;49.856;19.030;2023-02-04T01:19:53;100891.00;;;3.55;98.79
33949;BME280;20229;49.856;19.030;2023-02-04T01:24:57;100886.40;;;3.61;98.68
33949;BME280;20229;49.856;19.030;2023-02-04T01:30:19;100881.96;;;3.58;98.80
33949;BME280;20229;49.856;19.030;2023-02-04T01:35:22;100873.77;;;3.61;98.76
33949;BME280;20229;49.856;19.030;2023-02-04T01:40:45;100868.45;;;3.58;98.88
33949;BME280;20229;49.856;19.030;2023-02-04T01:45:50;100867.45;;;3.62;98.77
33949;BME280;20229;49.856;19.030;2023-02-04T01:51:13;100862.12;;;3.59;99.09
33949;BME280;20229;49.856;19.030;2023-02-04T01:56:19;100846.93;;;3.55;98.84
33949;BME280;20229;49.856;19.030;2023-02-04T02:01:41;100847.87;;;3.54;98.81
33949;BME280;20229;49.856;19.030;2023-02-04T02:06:52;100846.05;;;3.54;98.55
33949;BME280;20229;49.856;19.030;2023-02-04T02:12:02;100842.62;;;3.48;98.69
33949;BME280;20229;49.856;19.030;2023-02-04T02:17:06;100853.35;;;3.49;98.73
33949;BME280;20229;49.856;19.030;2023-02-04T02:22:40;100884.10;;;3.44;98.60
33949;BME280;20229;49.856;19.030;2023-02-04T02:27:45;100894.96;;;3.41;98.67
33949;BME280;20229;49.856;19.030;2023-02-04T02:32:54;100939.27;;;3.30;98.33
33949;BME280;20229;49.856;19.030;2023-02-04T02:37:58;100924.15;;;3.23;98.02
33949;BME280;20229;49.856;19.030;2023-02-04T02:43:22;100931.67;;;3.09;97.49
33949;BME280;20229;49.856;19.030;2023-02-04T02:48:27;100948.84;;;3.05;97.55
33949;BME280;20229;49.856;19.030;2023-02-04T02:53:47;100953.43;;;3.00;97.74
33949;BME280;20229;49.856;19.030;2023-02-04T02:58:51;100973.24;;;2.99;97.23
33949;BME280;20229;49.856;19.030;2023-02-04T03:04:11;100987.83;;;2.88;97.50
33949;BME280;20229;49.856;19.030;2023-02-04T03:09:14;100983.30;;;2.91;97.42
33949;BME280;20229;49.856;19.030;2023-02-04T03:14:37;100982.65;;;2.79;97.27
33949;BME280;20229;49.856;19.030;2023-02-04T03:19:41;100984.47;;;2.77;97.24
33949;BME280;20229;49.856;19.030;2023-02-04T03:25:02;100988.26;;;2.67;97.22
33949;BME280;20229;49.856;19.030;2023-02-04T03:30:07;100984.68;;;2.67;96.88
33949;BME280;20229;49.856;19.030;2023-02-04T03:35:28;101002.87;;;2.54;96.99
33949;BME280;20229;49.856;19.030;2023-02-04T03:40:31;101008.31;;;2.52;97.08
33949;BME280;20229;49.856;19.030;2023-02-04T03:45:53;101018.32;;;2.46;97.34
33949;BME280;20229;49.856;19.030;2023-02-04T03:50:56;101026.40;;;2.46;97.14
33949;BME280;20229;49.856;19.030;2023-02-04T03:56:19;101032.85;;;2.37;97.42
33949;BME280;20229;49.856;19.030;2023-02-04T04:01:23;101048.10;;;2.36;97.46
33949;BME280;20229;49.856;19.030;2023-02-04T04:06:45;101066.22;;;2.28;97.47
33949;BME280;20229;49.856;19.030;2023-02-04T04:11:48;101072.48;;;2.29;97.63
33949;BME280;20229;49.856;19.030;2023-02-04T04:17:10;101103.13;;;2.22;97.55
33949;BME280;20229;49.856;19.030;2023-02-04T04:22:14;101107.63;;;2.21;97.45
33949;BME280;20229;49.856;19.030;2023-02-04T04:27:36;101123.04;;;2.11;97.70
33949;BME280;20229;49.856;19.030;2023-02-04T04:32:39;101141.00;;;2.12;97.82
33949;BME280;20229;49.856;19.030;2023-02-04T04:38:02;101170.66;;;2.08;97.96
33949;BME280;20229;49.856;19.030;2023-02-04T04:43:05;101189.51;;;2.09;97.92
33949;BME280;20229;49.856;19.030;2023-02-04T04:48:27;101223.68;;;2.04;98.21
33949;BME280;20229;49.856;19.030;2023-02-04T04:53:32;101258.72;;;2.03;97.83
33949;BME280;20229;49.856;19.030;2023-02-04T04:58:53;101301.99;;;1.87;96.93
33949;BME280;20229;49.856;19.030;2023-02-04T05:03:57;101335.24;;;1.82;96.80
33949;BME280;20229;49.856;19.030;2023-02-04T05:09:19;101392.87;;;1.61;96.29
33949;BME280;20229;49.856;19.030;2023-02-04T05:14:22;101421.67;;;1.50;95.53
33949;BME280;20229;49.856;19.030;2023-02-04T05:19:44;101467.48;;;1.37;95.57
33949;BME280;20229;49.856;19.030;2023-02-04T05:24:48;101517.73;;;1.32;95.23
33949;BME280;20229;49.856;19.030;2023-02-04T05:30:11;101539.30;;;1.20;94.44
33949;BME280;20229;49.856;19.030;2023-02-04T05:35:15;101585.98;;;1.10;94.02
33949;BME280;20229;49.856;19.030;2023-02-04T05:40:36;101618.26;;;1.01;94.39
33949;BME280;20229;49.856;19.030;2023-02-04T05:45:39;101659.50;;;0.97;93.50
33949;BME280;20229;49.856;19.030;2023-02-04T05:51:02;101703.42;;;0.89;93.60
33949;BME280;20229;49.856;19.030;2023-02-04T05:56:05;101720.43;;;0.91;93.71
33949;BME280;20229;49.856;19.030;2023-02-04T06:01:27;101763.48;;;0.88;93.81
33949;BME280;20229;49.856;19.030;2023-02-04T06:06:30;101803.78;;;0.87;93.49
33949;BME280;20229;49.856;19.030;2023-02-04T06:11:53;101831.56;;;0.78;93.10
33949;BME280;20229;49.856;19.030;2023-02-04T06:16:56;101850.36;;;0.75;92.50
33949;BME280;20229;49.856;19.030;2023-02-04T06:22:19;101886.16;;;0.66;92.41
33949;BME280;20229;49.856;19.030;2023-02-04T06:27:22;101912.10;;;0.60;91.46
33949;BME280;20229;49.856;19.030;2023-02-04T06:32:45;101952.41;;;0.54;91.81
33949;BME280;20229;49.856;19.030;2023-02-04T06:37:48;101972.10;;;0.50;92.59
33949;BME280;20229;49.856;19.030;2023-02-04T06:43:10;102001.59;;;0.40;92.79
33949;BME280;20229;49.856;19.030;2023-02-04T06:48:13;102025.76;;;0.40;92.33
33949;BME280;20229;49.856;19.030;2023-02-04T06:53:36;102059.74;;;0.32;91.61
33949;BME280;20229;49.856;19.030;2023-02-04T06:58:39;102074.06;;;0.34;91.24
33949;BME280;20229;49.856;19.030;2023-02-04T07:04:02;102102.70;;;0.29;91.16
33949;BME280;20229;49.856;19.030;2023-02-04T07:09:05;102118.84;;;0.34;91.71
33949;BME280;20229;49.856;19.030;2023-02-04T07:14:27;102144.77;;;0.29;91.29
33949;BME280;20229;49.856;19.030;2023-02-04T07:19:31;102159.95;;;0.28;91.11
33949;BME280;20229;49.856;19.030;2023-02-04T07:24:54;102187.71;;;0.27;91.35
33949;BME280;20229;49.856;19.030;2023-02-04T07:29:57;102205.62;;;0.28;91.34
33949;BME280;20229;49.856;19.030;2023-02-04T07:35:20;102234.23;;;0.23;91.75
33949;BME280;20229;49.856;19.030;2023-02-04T07:40:23;102247.70;;;0.26;91.93
33949;BME280;20229;49.856;19.030;2023-02-04T07:45:46;102265.48;;;0.16;92.38
33949;BME280;20229;49.856;19.030;2023-02-04T07:50:49;102268.17;;;0.16;93.08
33949;BME280;20229;49.856;19.030;2023-02-04T07:56:11;102284.34;;;0.18;92.94
33949;BME280;20229;49.856;19.030;2023-02-04T08:01:16;102297.75;;;0.21;92.41
33949;BME280;20229;49.856;19.030;2023-02-04T08:06:37;102321.88;;;0.15;92.50
33949;BME280;20229;49.856;19.030;2023-02-04T08:11:40;102320.98;;;0.14;92.35
33949;BME280;20229;49.856;19.030;2023-02-04T08:17:03;102344.22;;;0.11;92.42
33949;BME280;20229;49.856;19.030;2023-02-04T08:22:06;102351.47;;;0.18;92.14
33949;BME280;20229;49.856;19.030;2023-02-04T08:27:29;102371.97;;;0.13;91.21
33949;BME280;20229;49.856;19.030;2023-02-04T08:32:32;102381.95;;;0.21;90.46
33949;BME280;20229;49.856;19.030;2023-02-04T08:37:54;102412.39;;;0.22;89.71
33949;BME280;20229;49.856;19.030;2023-02-04T08:42:57;102424.04;;;0.24;89.51
33949;BME280;20229;49.856;19.030;2023-02-04T08:48:20;102444.52;;;0.16;89.83
33949;BME280;20229;49.856;19.030;2023-02-04T08:53:23;102466.12;;;0.23;89.96
33949;BME280;20229;49.856;19.030;2023-02-04T08:58:46;102465.22;;;0.23;90.19
33949;BME280;20229;49.856;19.030;2023-02-04T09:03:54;102473.42;;;0.35;89.93
33949;BME280;20229;49.856;19.030;2023-02-04T09:09:12;102501.28;;;0.40;88.68
33949;BME280;20229;49.856;19.030;2023-02-04T09:14:16;102509.48;;;0.50;88.61
33949;BME280;20229;49.856;19.030;2023-02-04T09:19:37;102530.25;;;0.63;87.61
33949;BME280;20229;49.856;19.030;2023-02-04T09:24:40;102530.58;;;0.87;86.51
33949;BME280;20229;49.856;19.030;2023-02-04T09:30:07;102559.57;;;1.13;84.86
33949;BME280;20229;49.856;19.030;2023-02-04T09:35:10;102566.91;;;1.26;83.41
33949;BME280;20229;49.856;19.030;2023-02-04T09:40:32;102591.34;;;1.44;83.87
33949;BME280;20229;49.856;19.030;2023-02-04T09:45:39;102599.56;;;1.57;82.26
33949;BME280;20229;49.856;19.030;2023-02-04T09:51:03;102606.57;;;1.42;82.00
33949;BME280;20229;49.856;19.030;2023-02-04T09:56:09;102614.80;;;1.58;82.18
33949;BME280;20229;49.856;19.030;2023-02-04T10:01:20;102627.65;;;1.80;82.42
33949;BME280;20229;49.856;19.030;2023-02-04T10:06:23;102627.86;;;2.03;81.08
33949;BME280;20229;49.856;19.030;2023-02-04T10:11:47;102636.11;;;2.20;80.39
33949;BME280;20229;49.856;19.030;2023-02-04T10:16:57;102648.98;;;2.55;80.15
33949;BME280;20229;49.856;19.030;2023-02-04T10:22:20;102672.92;;;2.20;79.86
33949;BME280;20229;49.856;19.030;2023-02-04T10:27:25;102668.04;;;1.83;81.65
33949;BME280;20229;49.856;19.030;2023-02-04T10:32:37;102674.07;;;1.59;82.38
33949;BME280;20229;49.856;19.030;2023-02-04T10:37:41;102683.22;;;1.74;83.05
33949;BME280;20229;49.856;19.030;2023-02-04T10:43:10;102684.24;;;1.86;81.05
33949;BME280;20229;49.856;19.030;2023-02-04T10:48:18;102685.39;;;2.10;79.29
33949;BME280;20229;49.856;19.030;2023-02-04T10:53:28;102689.20;;;2.30;77.93
33949;BME280;20229;49.856;19.030;2023-02-04T10:58:44;102680.38;;;2.50;74.92
33949;BME280;20229;49.856;19.030;2023-02-04T11:03:54;102690.05;;;2.29;71.88
33949;BME280;20229;49.856;19.030;2023-02-04T11:08:58;102696.35;;;2.28;71.02
33949;BME280;20229;49.856;19.030;2023-02-04T11:14:29;102705.34;;;2.29;72.23
33949;BME280;20229;49.856;19.030;2023-02-04T11:19:35;102715.25;;;2.31;71.16
33949;BME280;20229;49.856;19.030;2023-02-04T11:24:45;102721.33;;;2.10;71.32
33949;BME280;20229;49.856;19.030;2023-02-04T11:29:49;102723.90;;;2.01;70.92
33949;BME280;20229;49.856;19.030;2023-02-04T11:35:20;102722.92;;;1.93;71.18
33949;BME280;20229;49.856;19.030;2023-02-04T11:40:35;102725.56;;;1.88;69.75
33949;BME280;20229;49.856;19.030;2023-02-04T11:45:38;102739.94;;;1.90;69.08
33949;BME280;20229;49.856;19.030;2023-02-04T11:56:04;102752.67;;;2.04;68.42
33949;BME280;20229;49.856;19.030;2023-02-04T12:06:31;102779.31;;;1.79;69.68
33949;BME280;20229;49.856;19.030;2023-02-04T12:11:35;102780.25;;;1.83;69.42
33949;BME280;20229;49.856;19.030;2023-02-04T12:16:54;102791.92;;;1.80;68.86
33949;BME280;20229;49.856;19.030;2023-02-04T12:21:58;102801.74;;;1.77;68.07
33949;BME280;20229;49.856;19.030;2023-02-04T12:27:23;102816.06;;;1.74;67.57
33949;BME280;20229;49.856;19.030;2023-02-04T12:32:26;102822.39;;;1.78;67.35
33949;BME280;20229;49.856;19.030;2023-02-04T12:37:45;102818.55;;;1.62;67.09
33949;BME280;20229;49.856;19.030;2023-02-04T12:42:48;102825.80;;;1.64;67.16
33949;BME280;20229;49.856;19.030;2023-02-04T12:48:11;102846.47;;;1.67;67.48
33949;BME280;20229;49.856;19.030;2023-02-04T12:53:15;102849.23;;;1.73;66.96
33949;BME280;20229;49.856;19.030;2023-02-04T12:58:36;102851.82;;;1.65;65.96
33949;BME280;20229;49.856;19.030;2023-02-04T13:03:40;102849.91;;;1.57;65.65
33949;BME280;20229;49.856;19.030;2023-02-04T13:09:02;102855.23;;;1.52;67.09
33949;BME280;20229;49.856;19.030;2023-02-04T13:14:06;102872.24;;;1.51;68.02
33949;BME280;20229;49.856;19.030;2023-02-04T13:19:28;102884.79;;;1.49;68.93
33949;BME280;20229;49.856;19.030;2023-02-04T13:24:31;102885.70;;;1.51;69.46
33949;BME280;20229;49.856;19.030;2023-02-04T13:29:53;102898.09;;;1.40;69.66
33949;BME280;20229;49.856;19.030;2023-02-04T13:34:57;102899.76;;;1.32;69.38
33949;BME280;20229;49.856;19.030;2023-02-04T13:40:19;102908.62;;;1.26;70.05
33949;BME280;20229;49.856;19.030;2023-02-04T13:45:23;102913.99;;;1.25;70.36
33949;BME280;20229;49.856;19.030;2023-02-04T13:50:45;102918.36;;;1.19;70.39
33949;BME280;20229;49.856;19.030;2023-02-04T13:55:48;102913.02;;;1.21;70.87
33949;BME280;20229;49.856;19.030;2023-02-04T14:01:13;102925.41;;;1.11;70.99
33949;BME280;20229;49.856;19.030;2023-02-04T14:06:17;102931.55;;;1.06;71.85
33949;BME280;20229;49.856;19.030;2023-02-04T14:11:36;102935.89;;;0.96;71.97
33949;BME280;20229;49.856;19.030;2023-02-04T14:16:40;102931.23;;;0.87;71.66
33949;BME280;20229;49.856;19.030;2023-02-04T14:22:02;102952.61;;;0.81;71.74
33949;BME280;20229;49.856;19.030;2023-02-04T14:27:05;102942.73;;;0.80;72.11
33949;BME280;20229;49.856;19.030;2023-02-04T14:32:28;102951.63;;;0.76;71.33
33949;BME280;20229;49.856;19.030;2023-02-04T14:37:31;102964.19;;;0.77;70.81
33949;BME280;20229;49.856;19.030;2023-02-04T14:42:53;102964.11;;;0.74;71.69
33949;BME280;20229;49.856;19.030;2023-02-04T14:47:57;102963.20;;;0.72;72.34
33949;BME280;20229;49.856;19.030;2023-02-04T14:53:19;102968.06;;;0.47;72.22
33949;BME280;20229;49.856;19.030;2023-02-04T14:58:22;102975.09;;;0.42;73.26
33949;BME280;20229;49.856;19.030;2023-02-04T15:03:45;102966.05;;;0.37;73.42
33949;BME280;20229;49.856;19.030;2023-02-04T15:08:48;102982.16;;;0.37;73.85
33949;BME280;20229;49.856;19.030;2023-02-04T15:14:11;102985.59;;;0.30;73.66
33949;BME280;20229;49.856;19.030;2023-02-04T15:19:15;102985.57;;;0.29;73.82
33949;BME280;20229;49.856;19.030;2023-02-04T15:24:37;103012.24;;;0.21;74.34
33949;BME280;20229;49.856;19.030;2023-02-04T15:29:41;103013.20;;;0.23;74.97
33949;BME280;20229;49.856;19.030;2023-02-04T15:35:03;103017.62;;;0.21;75.16
33949;BME280;20229;49.856;19.030;2023-02-04T15:40:08;103015.00;;;0.24;75.32
33949;BME280;20229;49.856;19.030;2023-02-04T15:45:28;103030.21;;;0.23;75.79
33949;BME280;20229;49.856;19.030;2023-02-04T15:50:31;103029.23;;;0.20;78.18
33949;BME280;20229;49.856;19.030;2023-02-04T15:55:54;103038.80;;;0.07;80.31
33949;BME280;20229;49.856;19.030;2023-02-04T16:00:57;103049.26;;;-0.04;80.56
33949;BME280;20229;49.856;19.030;2023-02-04T16:06:19;103056.94;;;-0.19;82.14
33949;BME280;20229;49.856;19.030;2023-02-04T16:11:23;103071.14;;;-0.23;82.69
33949;BME280;20229;49.856;19.030;2023-02-04T16:16:45;103068.92;;;-0.39;83.92
33949;BME280;20229;49.856;19.030;2023-02-04T16:21:49;103059.46;;;-0.60;84.49
33949;BME280;20229;49.856;19.030;2023-02-04T16:27:11;103065.95;;;-0.83;84.87
33949;BME280;20229;49.856;19.030;2023-02-04T16:32:14;103077.19;;;-0.97;85.03
33949;BME280;20229;49.856;19.030;2023-02-04T16:37:37;103090.15;;;-1.12;85.52
33949;BME280;20229;49.856;19.030;2023-02-04T16:42:40;103087.59;;;-1.07;86.40
33949;BME280;20229;49.856;19.030;2023-02-04T16:48:03;103099.41;;;-1.01;86.52
33949;BME280;20229;49.856;19.030;2023-02-04T16:53:07;103089.86;;;-0.91;85.92
33949;BME280;20229;49.856;19.030;2023-02-04T16:58:28;103099.85;;;-0.85;86.57
33949;BME280;20229;49.856;19.030;2023-02-04T17:03:32;103085.68;;;-0.81;86.31
33949;BME280;20229;49.856;19.030;2023-02-04T17:08:54;103096.41;;;-0.81;86.91
33949;BME280;20229;49.856;19.030;2023-02-04T17:13:59;103103.77;;;-0.74;86.71
33949;BME280;20229;49.856;19.030;2023-02-04T17:19:20;103100.13;;;-0.76;86.05
33949;BME280;20229;49.856;19.030;2023-02-04T17:24:23;103095.64;;;-0.77;86.70
33949;BME280;20229;49.856;19.030;2023-02-04T17:29:46;103108.95;;;-0.80;87.34
33949;BME280;20229;49.856;19.030;2023-02-04T17:34:49;103096.47;;;-0.78;86.29
33949;BME280;20229;49.856;19.030;2023-02-04T17:40:11;103107.88;;;-0.85;86.24
33949;BME280;20229;49.856;19.030;2023-02-04T17:45:15;103105.40;;;-0.79;86.03
33949;BME280;20229;49.856;19.030;2023-02-04T17:50:37;103107.14;;;-0.81;86.42
33949;BME280;20229;49.856;19.030;2023-02-04T17:55:41;103116.21;;;-0.76;85.31
33949;BME280;20229;49.856;19.030;2023-02-04T18:01:10;103117.92;;;-0.78;85.60
33949;BME280;20229;49.856;19.030;2023-02-04T18:06:21;103123.39;;;-0.75;85.61
33949;BME280;20229;49.856;19.030;2023-02-04T18:11:38;103125.13;;;-0.77;85.79
33949;BME280;20229;49.856;19.030;2023-02-04T18:16:42;103126.13;;;-0.74;85.06
33949;BME280;20229;49.856;19.030;2023-02-04T18:21:58;103124.23;;;-0.78;85.70
33949;BME280;20229;49.856;19.030;2023-02-04T18:32:35;103126.94;;;-0.76;86.10
33949;BME280;20229;49.856;19.030;2023-02-04T18:37:33;103127.13;;;-0.70;86.25
33949;BME280;20229;49.856;19.030;2023-02-04T18:42:47;103137.85;;;-0.70;86.54
33949;BME280;20229;49.856;19.030;2023-02-04T18:47:56;103122.70;;;-0.68;86.68
33949;BME280;20229;49.856;19.030;2023-02-04T18:53:21;103130.75;;;-0.68;86.87
33949;BME280;20229;49.856;19.030;2023-02-04T18:58:28;103124.59;;;-0.64;86.77
33949;BME280;20229;49.856;19.030;2023-02-04T19:09:06;103110.24;;;-0.66;86.58
33949;BME280;20229;49.856;19.030;2023-02-04T19:19:34;103124.76;;;-0.59;85.74
33949;BME280;20229;49.856;19.030;2023-02-04T19:24:38;103125.56;;;-0.62;86.50
33949;BME280;20229;49.856;19.030;2023-02-04T19:29:41;103135.48;;;-0.59;85.27
33949;BME280;20229;49.856;19.030;2023-02-04T19:34:58;103141.66;;;-0.62;85.00
33949;BME280;20229;49.856;19.030;2023-02-04T19:45:24;103133.58;;;-0.63;83.83
33949;BME280;20229;49.856;19.030;2023-02-04T19:50:33;103134.57;;;-0.60;83.61
33949;BME280;20229;49.856;19.030;2023-02-04T19:55:50;103145.22;;;-0.63;83.70
33949;BME280;20229;49.856;19.030;2023-02-04T20:11:37;103158.72;;;-0.60;82.39
33949;BME280;20229;49.856;19.030;2023-02-04T20:16:55;103159.53;;;-0.62;81.99
33949;BME280;20229;49.856;19.030;2023-02-04T20:27:27;103171.14;;;-0.63;82.63
33949;BME280;20229;49.856;19.030;2023-02-04T20:32:37;103174.66;;;-0.64;83.38
33949;BME280;20229;49.856;19.030;2023-02-04T20:37:42;103192.34;;;-0.71;84.57
33949;BME280;20229;49.856;19.030;2023-02-04T20:43:21;103186.93;;;-0.74;84.81
33949;BME280;20229;49.856;19.030;2023-02-04T20:48:43;103196.58;;;-0.79;85.53
33949;BME280;20229;49.856;19.030;2023-02-04T20:53:49;103196.58;;;-0.79;85.37
33949;BME280;20229;49.856;19.030;2023-02-04T21:04:28;103188.30;;;-0.87;85.88
33949;BME280;20229;49.856;19.030;2023-02-04T21:09:36;103187.02;;;-1.00;86.24
33949;BME280;20229;49.856;19.030;2023-02-04T21:14:42;103203.00;;;-1.03;86.49
33949;BME280;20229;49.856;19.030;2023-02-04T21:20:01;103205.34;;;-1.13;86.53
33949;BME280;20229;49.856;19.030;2023-02-04T21:25:06;103200.93;;;-1.13;86.26
33949;BME280;20229;49.856;19.030;2023-02-04T21:30:27;103214.99;;;-1.20;86.20
33949;BME280;20229;49.856;19.030;2023-02-04T21:35:32;103216.73;;;-1.21;86.17
33949;BME280;20229;49.856;19.030;2023-02-04T21:40:53;103221.95;;;-1.25;85.75
33949;BME280;20229;49.856;19.030;2023-02-04T21:45:56;103219.27;;;-1.25;85.37
33949;BME280;20229;49.856;19.030;2023-02-04T21:51:18;103227.00;;;-1.34;85.38
33949;BME280;20229;49.856;19.030;2023-02-04T21:56:22;103221.46;;;-1.40;85.14
33949;BME280;20229;49.856;19.030;2023-02-04T22:01:44;103234.44;;;-1.53;84.74
33949;BME280;20229;49.856;19.030;2023-02-04T22:06:48;103231.27;;;-1.66;83.83
33949;BME280;20229;49.856;19.030;2023-02-04T22:12:10;103237.77;;;-1.85;83.53
33949;BME280;20229;49.856;19.030;2023-02-04T22:17:13;103247.42;;;-1.90;83.55
33949;BME280;20229;49.856;19.030;2023-02-04T22:22:36;103261.27;;;-2.02;83.82
33949;BME280;20229;49.856;19.030;2023-02-04T22:27:39;103259.68;;;-1.97;84.38
33949;BME280;20229;49.856;19.030;2023-02-04T22:33:01;103273.45;;;-1.86;84.76
33949;BME280;20229;49.856;19.030;2023-02-04T22:38:05;103278.32;;;-1.75;84.41
33949;BME280;20229;49.856;19.030;2023-02-04T22:43:27;103281.75;;;-1.79;83.76
33949;BME280;20229;49.856;19.030;2023-02-04T22:48:34;103288.54;;;-1.88;83.42
33949;BME280;20229;49.856;19.030;2023-02-04T22:53:53;103309.41;;;-2.04;83.79
33949;BME280;20229;49.856;19.030;2023-02-04T22:58:59;103302.52;;;-1.97;83.85
33949;BME280;20229;49.856;19.030;2023-02-04T23:04:19;103306.96;;;-1.98;83.74
33949;BME280;20229;49.856;19.030;2023-02-04T23:09:23;103306.73;;;-2.04;83.35
33949;BME280;20229;49.856;19.030;2023-02-04T23:14:47;103322.39;;;-2.14;83.05
33949;BME280;20229;49.856;19.030;2023-02-04T23:19:50;103327.54;;;-2.19;82.87
33949;BME280;20229;49.856;19.030;2023-02-04T23:25:10;103328.13;;;-2.28;82.91
33949;BME280;20229;49.856;19.030;2023-02-04T23:30:15;103323.67;;;-2.27;83.06
33949;BME280;20229;49.856;19.030;2023-02-04T23:35:36;103335.98;;;-2.32;83.04
33949;BME280;20229;49.856;19.030;2023-02-04T23:40:39;103341.45;;;-2.29;83.10
33949;BME280;20229;49.856;19.030;2023-02-04T23:46:02;103341.45;;;-2.29;83.22
33949;BME280;20229;49.856;19.030;2023-02-04T23:51:05;103340.64;;;-2.27;83.29
33949;BME280;20229;49.856;19.030;2023-02-04T23:56:27;103343.14;;;-2.31;82.95
